sensor_id;sensor_type;location;lat;lon;timestamp;P1;durP1;ratioP1;P2;durP2;ratioP2
5175;SDS011;2607;50.934;6.934;2023-04-15T00:00:26;7.27;;;4.50;;
5175;SDS011;2607;50.934;6.934;2023-04-15T00:02:53;7.73;;;5.70;;
5175;SDS011;2607;50.934;6.934;2023-04-15T00:05:19;8.57;;;4.90;;
5175;SDS011;2607;50.934;6.934;2023-04-15T00:07:44;8.97;;;4.97;;
5175;SDS011;2607;50.934;6.934;2023-04-15T00:10:11;10.90;;;5.53;;
5175;SDS011;2607;50.934;6.934;2023-04-15T00:12:37;8.77;;;5.90;;
5175;SDS011;2607;50.934;6.934;2023-04-15T00:15:02;5.83;;;4.93;;
5175;SDS011;2607;50.934;6.934;2023-04-15T00:17:28;5.27;;;4.20;;
5175;SDS011;2607;50.934;6.934;2023-04-15T00:19:54;9.23;;;5.60;;
5175;SDS011;2607;50.934;6.934;2023-04-15T00:22:20;8.33;;;6.10;;
5175;SDS011;2607;50.934;6.934;2023-04-15T00:24:46;7.17;;;5.60;;
5175;SDS011;2607;50.934;6.934;2023-04-15T00:27:12;7.77;;;4.97;;
5175;SDS011;2607;50.934;6.934;2023-04-15T00:29:37;6.70;;;4.67;;
5175;SDS011;2607;50.934;6.934;2023-04-15T00:32:03;6.03;;;4.60;;
5175;SDS011;2607;50.934;6.934;2023-04-15T00:34:29;4.13;;;3.83;;
5175;SDS011;2607;50.934;6.934;2023-04-15T00:36:55;7.97;;;4.30;;
5175;SDS011;2607;50.934;6.934;2023-04-15T00:39:21;7.00;;;4.70;;
5175;SDS011;2607;50.934;6.934;2023-04-15T00:41:46;8.60;;;4.93;;
5175;SDS011;2607;50.934;6.934;2023-04-15T00:44:13;9.57;;;4.43;;
5175;SDS011;2607;50.934;6.934;2023-04-15T00:46:39;6.37;;;3.90;;
5175;SDS011;2607;50.934;6.934;2023-04-15T00:49:07;7.60;;;6.67;;
5175;SDS011;2607;50.934;6.934;2023-04-15T00:51:33;10.03;;;4.90;;
5175;SDS011;2607;50.934;6.934;2023-04-15T00:54:04;5.03;;;4.40;;
5175;SDS011;2607;50.934;6.934;2023-04-15T00:56:34;5.67;;;4.57;;
5175;SDS011;2607;50.934;6.934;2023-04-15T00:59:00;7.90;;;5.17;;
5175;SDS011;2607;50.934;6.934;2023-04-15T01:01:26;6.00;;;4.87;;
5175;SDS011;2607;50.934;6.934;2023-04-15T01:03:55;5.60;;;4.20;;
5175;SDS011;2607;50.934;6.934;2023-04-15T01:06:22;6.87;;;4.43;;
5175;SDS011;2607;50.934;6.934;2023-04-15T01:08:48;6.93;;;4.40;;
5175;SDS011;2607;50.934;6.934;2023-04-15T01:11:14;6.30;;;3.70;;
5175;SDS011;2607;50.934;6.934;2023-04-15T01:13:41;5.90;;;3.77;;
5175;SDS011;2607;50.934;6.934;2023-04-15T01:16:07;11.93;;;4.40;;
5175;SDS011;2607;50.934;6.934;2023-04-15T01:18:33;4.90;;;3.87;;
5175;SDS011;2607;50.934;6.934;2023-04-15T01:21:00;4.30;;;3.80;;
5175;SDS011;2607;50.934;6.934;2023-04-15T01:23:27;5.17;;;3.20;;
5175;SDS011;2607;50.934;6.934;2023-04-15T01:25:53;7.97;;;3.50;;
5175;SDS011;2607;50.934;6.934;2023-04-15T01:28:20;4.83;;;3.80;;
5175;SDS011;2607;50.934;6.934;2023-04-15T01:30:46;5.37;;;3.40;;
5175;SDS011;2607;50.934;6.934;2023-04-15T01:33:12;4.20;;;3.57;;
5175;SDS011;2607;50.934;6.934;2023-04-15T01:35:38;3.60;;;3.30;;
5175;SDS011;2607;50.934;6.934;2023-04-15T01:38:04;5.97;;;3.17;;
5175;SDS011;2607;50.934;6.934;2023-04-15T01:40:31;4.33;;;3.50;;
5175;SDS011;2607;50.934;6.934;2023-04-15T01:42:57;4.00;;;3.70;;
5175;SDS011;2607;50.934;6.934;2023-04-15T01:45:23;5.50;;;3.83;;
5175;SDS011;2607;50.934;6.934;2023-04-15T01:47:49;4.50;;;3.87;;
5175;SDS011;2607;50.934;6.934;2023-04-15T01:50:15;5.47;;;3.53;;
5175;SDS011;2607;50.934;6.934;2023-04-15T01:52:40;3.97;;;3.50;;
5175;SDS011;2607;50.934;6.934;2023-04-15T01:55:06;4.70;;;3.87;;
5175;SDS011;2607;50.934;6.934;2023-04-15T01:57:33;6.80;;;4.23;;
5175;SDS011;2607;50.934;6.934;2023-04-15T01:59:58;7.73;;;4.23;;
5175;SDS011;2607;50.934;6.934;2023-04-15T02:02:24;5.33;;;3.60;;
5175;SDS011;2607;50.934;6.934;2023-04-15T02:04:50;4.20;;;3.80;;
5175;SDS011;2607;50.934;6.934;2023-04-15T02:07:16;8.70;;;3.50;;
5175;SDS011;2607;50.934;6.934;2023-04-15T02:09:41;4.67;;;3.70;;
5175;SDS011;2607;50.934;6.934;2023-04-15T02:12:08;4.10;;;3.60;;
5175;SDS011;2607;50.934;6.934;2023-04-15T02:14:33;3.43;;;3.10;;
5175;SDS011;2607;50.934;6.934;2023-04-15T02:16:59;4.23;;;3.97;;
5175;SDS011;2607;50.934;6.934;2023-04-15T02:19:31;5.93;;;4.00;;
5175;SDS011;2607;50.934;6.934;2023-04-15T02:21:57;4.33;;;3.63;;
5175;SDS011;2607;50.934;6.934;2023-04-15T02:24:24;4.00;;;3.70;;
5175;SDS011;2607;50.934;6.934;2023-04-15T02:26:50;5.37;;;3.57;;
5175;SDS011;2607;50.934;6.934;2023-04-15T02:29:15;5.77;;;3.70;;
5175;SDS011;2607;50.934;6.934;2023-04-15T02:31:41;5.17;;;3.90;;
5175;SDS011;2607;50.934;6.934;2023-04-15T02:34:07;4.20;;;3.80;;
5175;SDS011;2607;50.934;6.934;2023-04-15T02:36:33;9.17;;;3.20;;
5175;SDS011;2607;50.934;6.934;2023-04-15T02:38:58;4.77;;;3.70;;
5175;SDS011;2607;50.934;6.934;2023-04-15T02:41:24;4.30;;;3.40;;
5175;SDS011;2607;50.934;6.934;2023-04-15T02:43:52;7.47;;;3.77;;
5175;SDS011;2607;50.934;6.934;2023-04-15T02:46:18;3.57;;;3.27;;
5175;SDS011;2607;50.934;6.934;2023-04-15T02:48:43;4.20;;;3.43;;
5175;SDS011;2607;50.934;6.934;2023-04-15T02:51:13;4.50;;;2.90;;
5175;SDS011;2607;50.934;6.934;2023-04-15T02:53:47;4.03;;;3.50;;
5175;SDS011;2607;50.934;6.934;2023-04-15T02:56:14;3.83;;;3.53;;
5175;SDS011;2607;50.934;6.934;2023-04-15T02:58:42;7.80;;;4.40;;
5175;SDS011;2607;50.934;6.934;2023-04-15T03:01:09;5.60;;;4.07;;
5175;SDS011;2607;50.934;6.934;2023-04-15T03:03:35;4.83;;;3.53;;
5175;SDS011;2607;50.934;6.934;2023-04-15T03:06:01;5.50;;;3.23;;
5175;SDS011;2607;50.934;6.934;2023-04-15T03:08:26;5.23;;;4.00;;
5175;SDS011;2607;50.934;6.934;2023-04-15T03:10:52;4.07;;;3.63;;
5175;SDS011;2607;50.934;6.934;2023-04-15T03:13:18;3.77;;;3.27;;
5175;SDS011;2607;50.934;6.934;2023-04-15T03:15:45;3.10;;;2.90;;
5175;SDS011;2607;50.934;6.934;2023-04-15T03:18:11;6.87;;;4.63;;
5175;SDS011;2607;50.934;6.934;2023-04-15T03:20:37;4.20;;;3.57;;
5175;SDS011;2607;50.934;6.934;2023-04-15T03:23:02;3.40;;;3.20;;
5175;SDS011;2607;50.934;6.934;2023-04-15T03:25:28;5.03;;;3.77;;
5175;SDS011;2607;50.934;6.934;2023-04-15T03:27:53;3.50;;;3.20;;
5175;SDS011;2607;50.934;6.934;2023-04-15T03:30:19;8.03;;;3.90;;
5175;SDS011;2607;50.934;6.934;2023-04-15T03:32:44;3.53;;;3.30;;
5175;SDS011;2607;50.934;6.934;2023-04-15T03:35:10;3.40;;;3.10;;
5175;SDS011;2607;50.934;6.934;2023-04-15T03:37:35;4.20;;;3.70;;
5175;SDS011;2607;50.934;6.934;2023-04-15T03:40:01;7.37;;;3.40;;
5175;SDS011;2607;50.934;6.934;2023-04-15T03:42:27;5.23;;;3.20;;
5175;SDS011;2607;50.934;6.934;2023-04-15T03:44:52;3.90;;;3.50;;
5175;SDS011;2607;50.934;6.934;2023-04-15T03:47:18;4.97;;;3.40;;
5175;SDS011;2607;50.934;6.934;2023-04-15T03:49:43;3.30;;;2.90;;
5175;SDS011;2607;50.934;6.934;2023-04-15T03:52:09;3.03;;;2.93;;
5175;SDS011;2607;50.934;6.934;2023-04-15T03:54:35;3.63;;;3.20;;
5175;SDS011;2607;50.934;6.934;2023-04-15T03:57:00;3.53;;;3.30;;
5175;SDS011;2607;50.934;6.934;2023-04-15T03:59:26;6.33;;;4.47;;
5175;SDS011;2607;50.934;6.934;2023-04-15T04:01:51;5.37;;;4.00;;
5175;SDS011;2607;50.934;6.934;2023-04-15T04:04:17;9.50;;;3.80;;
5175;SDS011;2607;50.934;6.934;2023-04-15T04:06:42;3.63;;;3.43;;
5175;SDS011;2607;50.934;6.934;2023-04-15T04:09:08;4.43;;;3.20;;
5175;SDS011;2607;50.934;6.934;2023-04-15T04:11:33;6.87;;;4.20;;
5175;SDS011;2607;50.934;6.934;2023-04-15T04:13:59;4.10;;;3.43;;
5175;SDS011;2607;50.934;6.934;2023-04-15T04:16:25;4.60;;;3.60;;
5175;SDS011;2607;50.934;6.934;2023-04-15T04:18:50;8.50;;;4.07;;
5175;SDS011;2607;50.934;6.934;2023-04-15T04:21:16;6.43;;;4.10;;
5175;SDS011;2607;50.934;6.934;2023-04-15T04:23:42;7.40;;;3.70;;
5175;SDS011;2607;50.934;6.934;2023-04-15T04:26:07;5.87;;;3.70;;
5175;SDS011;2607;50.934;6.934;2023-04-15T04:28:33;4.97;;;3.90;;
5175;SDS011;2607;50.934;6.934;2023-04-15T04:31:00;4.57;;;3.53;;
5175;SDS011;2607;50.934;6.934;2023-04-15T04:33:26;7.13;;;4.27;;
5175;SDS011;2607;50.934;6.934;2023-04-15T04:35:51;5.97;;;3.60;;
5175;SDS011;2607;50.934;6.934;2023-04-15T04:38:17;3.77;;;3.50;;
5175;SDS011;2607;50.934;6.934;2023-04-15T04:40:42;4.23;;;3.60;;
5175;SDS011;2607;50.934;6.934;2023-04-15T04:43:08;6.33;;;3.80;;
5175;SDS011;2607;50.934;6.934;2023-04-15T04:45:34;3.63;;;3.30;;
5175;SDS011;2607;50.934;6.934;2023-04-15T04:48:00;4.30;;;3.77;;
5175;SDS011;2607;50.934;6.934;2023-04-15T04:50:25;6.00;;;3.80;;
5175;SDS011;2607;50.934;6.934;2023-04-15T04:52:51;4.03;;;3.60;;
5175;SDS011;2607;50.934;6.934;2023-04-15T04:55:16;3.60;;;3.30;;
5175;SDS011;2607;50.934;6.934;2023-04-15T04:57:42;3.50;;;3.10;;
5175;SDS011;2607;50.934;6.934;2023-04-15T05:00:08;3.50;;;3.20;;
5175;SDS011;2607;50.934;6.934;2023-04-15T05:02:34;5.37;;;3.70;;
5175;SDS011;2607;50.934;6.934;2023-04-15T05:05:00;5.00;;;3.80;;
5175;SDS011;2607;50.934;6.934;2023-04-15T05:07:25;6.37;;;3.50;;
5175;SDS011;2607;50.934;6.934;2023-04-15T05:09:51;5.63;;;4.67;;
5175;SDS011;2607;50.934;6.934;2023-04-15T05:12:17;4.87;;;4.47;;
5175;SDS011;2607;50.934;6.934;2023-04-15T05:14:43;5.83;;;4.10;;
5175;SDS011;2607;50.934;6.934;2023-04-15T05:17:08;9.00;;;4.20;;
5175;SDS011;2607;50.934;6.934;2023-04-15T05:19:35;4.30;;;3.50;;
5175;SDS011;2607;50.934;6.934;2023-04-15T05:22:00;4.60;;;3.70;;
5175;SDS011;2607;50.934;6.934;2023-04-15T05:24:26;4.10;;;3.70;;
5175;SDS011;2607;50.934;6.934;2023-04-15T05:26:52;3.40;;;3.10;;
5175;SDS011;2607;50.934;6.934;2023-04-15T05:29:17;3.53;;;3.23;;
5175;SDS011;2607;50.934;6.934;2023-04-15T05:31:43;4.20;;;3.67;;
5175;SDS011;2607;50.934;6.934;2023-04-15T05:34:08;3.60;;;3.30;;
5175;SDS011;2607;50.934;6.934;2023-04-15T05:36:35;4.83;;;3.60;;
5175;SDS011;2607;50.934;6.934;2023-04-15T05:39:01;4.40;;;3.97;;
5175;SDS011;2607;50.934;6.934;2023-04-15T05:41:27;5.73;;;3.50;;
5175;SDS011;2607;50.934;6.934;2023-04-15T05:43:53;6.27;;;4.20;;
5175;SDS011;2607;50.934;6.934;2023-04-15T05:46:19;5.63;;;4.40;;
5175;SDS011;2607;50.934;6.934;2023-04-15T05:48:44;7.70;;;4.97;;
5175;SDS011;2607;50.934;6.934;2023-04-15T05:51:10;15.23;;;5.53;;
5175;SDS011;2607;50.934;6.934;2023-04-15T05:53:35;10.43;;;6.97;;
5175;SDS011;2607;50.934;6.934;2023-04-15T05:56:01;10.07;;;5.70;;
5175;SDS011;2607;50.934;6.934;2023-04-15T05:58:27;9.53;;;5.20;;
5175;SDS011;2607;50.934;6.934;2023-04-15T06:00:52;7.43;;;5.50;;
5175;SDS011;2607;50.934;6.934;2023-04-15T06:03:18;7.23;;;5.57;;
5175;SDS011;2607;50.934;6.934;2023-04-15T06:05:43;6.00;;;5.40;;
5175;SDS011;2607;50.934;6.934;2023-04-15T06:08:09;10.97;;;6.27;;
5175;SDS011;2607;50.934;6.934;2023-04-15T06:10:35;6.10;;;5.23;;
5175;SDS011;2607;50.934;6.934;2023-04-15T06:13:03;11.53;;;5.20;;
5175;SDS011;2607;50.934;6.934;2023-04-15T06:15:29;5.60;;;5.10;;
5175;SDS011;2607;50.934;6.934;2023-04-15T06:17:55;8.27;;;5.03;;
5175;SDS011;2607;50.934;6.934;2023-04-15T06:20:21;9.13;;;6.40;;
5175;SDS011;2607;50.934;6.934;2023-04-15T06:22:46;8.30;;;5.50;;
5175;SDS011;2607;50.934;6.934;2023-04-15T06:25:12;5.03;;;4.53;;
5175;SDS011;2607;50.934;6.934;2023-04-15T06:27:38;10.30;;;5.53;;
5175;SDS011;2607;50.934;6.934;2023-04-15T06:30:03;5.77;;;4.93;;
5175;SDS011;2607;50.934;6.934;2023-04-15T06:32:31;7.33;;;5.57;;
5175;SDS011;2607;50.934;6.934;2023-04-15T06:34:56;7.27;;;5.07;;
5175;SDS011;2607;50.934;6.934;2023-04-15T06:37:22;5.10;;;4.60;;
5175;SDS011;2607;50.934;6.934;2023-04-15T06:39:47;7.40;;;5.20;;
5175;SDS011;2607;50.934;6.934;2023-04-15T06:42:13;8.83;;;5.77;;
5175;SDS011;2607;50.934;6.934;2023-04-15T06:44:38;9.03;;;6.93;;
5175;SDS011;2607;50.934;6.934;2023-04-15T06:47:04;6.10;;;5.50;;
5175;SDS011;2607;50.934;6.934;2023-04-15T06:49:30;10.73;;;5.73;;
5175;SDS011;2607;50.934;6.934;2023-04-15T06:51:55;11.10;;;6.00;;
5175;SDS011;2607;50.934;6.934;2023-04-15T06:54:21;9.60;;;7.10;;
5175;SDS011;2607;50.934;6.934;2023-04-15T06:56:47;8.03;;;6.00;;
5175;SDS011;2607;50.934;6.934;2023-04-15T06:59:12;6.67;;;5.97;;
5175;SDS011;2607;50.934;6.934;2023-04-15T07:01:41;6.80;;;5.50;;
5175;SDS011;2607;50.934;6.934;2023-04-15T07:04:07;7.90;;;5.30;;
5175;SDS011;2607;50.934;6.934;2023-04-15T07:06:33;6.30;;;5.40;;
5175;SDS011;2607;50.934;6.934;2023-04-15T07:08:59;10.80;;;5.17;;
5175;SDS011;2607;50.934;6.934;2023-04-15T07:11:25;6.10;;;5.60;;
5175;SDS011;2607;50.934;6.934;2023-04-15T07:13:51;8.03;;;5.73;;
5175;SDS011;2607;50.934;6.934;2023-04-15T07:16:17;5.47;;;4.93;;
5175;SDS011;2607;50.934;6.934;2023-04-15T07:18:43;9.77;;;5.90;;
5175;SDS011;2607;50.934;6.934;2023-04-15T07:21:08;7.10;;;5.83;;
5175;SDS011;2607;50.934;6.934;2023-04-15T07:23:34;9.90;;;5.80;;
5175;SDS011;2607;50.934;6.934;2023-04-15T07:26:00;9.17;;;5.93;;
5175;SDS011;2607;50.934;6.934;2023-04-15T07:28:25;9.33;;;6.80;;
5175;SDS011;2607;50.934;6.934;2023-04-15T07:30:51;6.90;;;6.30;;
5175;SDS011;2607;50.934;6.934;2023-04-15T07:33:17;16.80;;;10.10;;
5175;SDS011;2607;50.934;6.934;2023-04-15T07:35:42;8.00;;;7.27;;
5175;SDS011;2607;50.934;6.934;2023-04-15T07:38:09;8.30;;;7.13;;
5175;SDS011;2607;50.934;6.934;2023-04-15T07:40:36;9.60;;;7.63;;
5175;SDS011;2607;50.934;6.934;2023-04-15T07:43:03;9.50;;;7.57;;
5175;SDS011;2607;50.934;6.934;2023-04-15T07:45:29;7.40;;;6.67;;
5175;SDS011;2607;50.934;6.934;2023-04-15T07:47:55;8.53;;;7.47;;
5175;SDS011;2607;50.934;6.934;2023-04-15T07:50:21;7.97;;;7.23;;
5175;SDS011;2607;50.934;6.934;2023-04-15T07:52:47;9.57;;;7.23;;
5175;SDS011;2607;50.934;6.934;2023-04-15T07:55:16;10.43;;;7.20;;
5175;SDS011;2607;50.934;6.934;2023-04-15T07:57:44;10.40;;;7.20;;
5175;SDS011;2607;50.934;6.934;2023-04-15T08:00:11;7.40;;;6.50;;
5175;SDS011;2607;50.934;6.934;2023-04-15T08:02:37;7.33;;;6.73;;
5175;SDS011;2607;50.934;6.934;2023-04-15T08:05:03;8.27;;;6.80;;
5175;SDS011;2607;50.934;6.934;2023-04-15T08:07:29;8.90;;;7.03;;
5175;SDS011;2607;50.934;6.934;2023-04-15T08:09:55;7.80;;;6.53;;
5175;SDS011;2607;50.934;6.934;2023-04-15T08:12:20;8.17;;;6.90;;
5175;SDS011;2607;50.934;6.934;2023-04-15T08:14:46;10.23;;;6.30;;
5175;SDS011;2607;50.934;6.934;2023-04-15T08:17:12;7.13;;;6.43;;
5175;SDS011;2607;50.934;6.934;2023-04-15T08:19:37;6.00;;;5.43;;
5175;SDS011;2607;50.934;6.934;2023-04-15T08:22:04;7.10;;;5.20;;
5175;SDS011;2607;50.934;6.934;2023-04-15T08:24:30;7.53;;;6.20;;
5175;SDS011;2607;50.934;6.934;2023-04-15T08:26:55;6.07;;;4.53;;
5175;SDS011;2607;50.934;6.934;2023-04-15T08:29:21;6.00;;;3.77;;
5175;SDS011;2607;50.934;6.934;2023-04-15T08:31:47;4.37;;;3.97;;
5175;SDS011;2607;50.934;6.934;2023-04-15T08:34:13;3.73;;;3.20;;
5175;SDS011;2607;50.934;6.934;2023-04-15T08:36:39;2.97;;;2.80;;
5175;SDS011;2607;50.934;6.934;2023-04-15T08:39:05;3.03;;;2.83;;
5175;SDS011;2607;50.934;6.934;2023-04-15T08:41:33;3.40;;;2.83;;
5175;SDS011;2607;50.934;6.934;2023-04-15T08:44:09;2.60;;;2.40;;
5175;SDS011;2607;50.934;6.934;2023-04-15T08:46:35;3.57;;;2.70;;
5175;SDS011;2607;50.934;6.934;2023-04-15T08:49:03;2.97;;;1.80;;
5175;SDS011;2607;50.934;6.934;2023-04-15T08:51:29;2.03;;;1.93;;
5175;SDS011;2607;50.934;6.934;2023-04-15T08:53:55;3.70;;;2.43;;
5175;SDS011;2607;50.934;6.934;2023-04-15T08:56:25;2.47;;;2.37;;
5175;SDS011;2607;50.934;6.934;2023-04-15T08:58:52;2.80;;;2.30;;
5175;SDS011;2607;50.934;6.934;2023-04-15T09:01:17;2.60;;;2.33;;
5175;SDS011;2607;50.934;6.934;2023-04-15T09:03:43;2.40;;;2.30;;
5175;SDS011;2607;50.934;6.934;2023-04-15T09:06:12;2.87;;;2.70;;
5175;SDS011;2607;50.934;6.934;2023-04-15T09:08:38;2.70;;;2.50;;
5175;SDS011;2607;50.934;6.934;2023-04-15T09:11:04;3.13;;;2.63;;
5175;SDS011;2607;50.934;6.934;2023-04-15T09:13:30;2.37;;;2.27;;
5175;SDS011;2607;50.934;6.934;2023-04-15T09:15:56;3.20;;;3.00;;
5175;SDS011;2607;50.934;6.934;2023-04-15T09:21:08;2.60;;;2.40;;
5175;SDS011;2607;50.934;6.934;2023-04-15T09:23:39;3.87;;;3.47;;
5175;SDS011;2607;50.934;6.934;2023-04-15T09:26:35;3.20;;;2.90;;
5175;SDS011;2607;50.934;6.934;2023-04-15T09:29:05;2.10;;;2.00;;
5175;SDS011;2607;50.934;6.934;2023-04-15T09:31:33;2.30;;;2.20;;
5175;SDS011;2607;50.934;6.934;2023-04-15T09:33:59;2.83;;;2.63;;
5175;SDS011;2607;50.934;6.934;2023-04-15T09:36:25;2.47;;;2.27;;
5175;SDS011;2607;50.934;6.934;2023-04-15T09:38:57;2.30;;;2.20;;
5175;SDS011;2607;50.934;6.934;2023-04-15T09:41:23;3.63;;;3.33;;
5175;SDS011;2607;50.934;6.934;2023-04-15T09:43:50;2.57;;;2.47;;
5175;SDS011;2607;50.934;6.934;2023-04-15T09:46:15;2.80;;;2.30;;
5175;SDS011;2607;50.934;6.934;2023-04-15T09:48:41;8.27;;;5.97;;
5175;SDS011;2607;50.934;6.934;2023-04-15T09:51:06;7.80;;;5.80;;
5175;SDS011;2607;50.934;6.934;2023-04-15T09:53:33;3.10;;;2.90;;
5175;SDS011;2607;50.934;6.934;2023-04-15T09:56:00;4.77;;;4.33;;
5175;SDS011;2607;50.934;6.934;2023-04-15T10:00:53;3.33;;;2.77;;
5175;SDS011;2607;50.934;6.934;2023-04-15T10:05:47;6.50;;;5.80;;
5175;SDS011;2607;50.934;6.934;2023-04-15T10:08:18;4.33;;;3.93;;
5175;SDS011;2607;50.934;6.934;2023-04-15T10:10:46;2.90;;;2.80;;
5175;SDS011;2607;50.934;6.934;2023-04-15T10:13:19;2.87;;;2.73;;
5175;SDS011;2607;50.934;6.934;2023-04-15T10:15:56;3.80;;;3.60;;
5175;SDS011;2607;50.934;6.934;2023-04-15T10:18:28;3.87;;;3.57;;
5175;SDS011;2607;50.934;6.934;2023-04-15T10:20:59;3.80;;;3.50;;
5175;SDS011;2607;50.934;6.934;2023-04-15T10:23:25;6.73;;;5.10;;
5175;SDS011;2607;50.934;6.934;2023-04-15T10:25:52;5.80;;;4.80;;
5175;SDS011;2607;50.934;6.934;2023-04-15T10:28:18;3.83;;;3.63;;
5175;SDS011;2607;50.934;6.934;2023-04-15T10:30:44;4.60;;;4.20;;
5175;SDS011;2607;50.934;6.934;2023-04-15T10:33:11;6.97;;;6.37;;
5175;SDS011;2607;50.934;6.934;2023-04-15T10:35:38;7.50;;;6.80;;
5175;SDS011;2607;50.934;6.934;2023-04-15T10:46:21;3.47;;;3.30;;
5175;SDS011;2607;50.934;6.934;2023-04-15T10:51:33;4.30;;;4.00;;
5175;SDS011;2607;50.934;6.934;2023-04-15T10:54:06;4.80;;;4.50;;
5175;SDS011;2607;50.934;6.934;2023-04-15T10:59:28;3.73;;;3.43;;
5175;SDS011;2607;50.934;6.934;2023-04-15T11:01:55;5.27;;;4.83;;
5175;SDS011;2607;50.934;6.934;2023-04-15T11:12:53;3.53;;;3.33;;
5175;SDS011;2607;50.934;6.934;2023-04-15T11:18:19;3.60;;;3.40;;
5175;SDS011;2607;50.934;6.934;2023-04-15T11:20:50;3.90;;;3.60;;
5175;SDS011;2607;50.934;6.934;2023-04-15T11:23:41;3.73;;;3.57;;
5175;SDS011;2607;50.934;6.934;2023-04-15T11:26:10;3.50;;;3.30;;
5175;SDS011;2607;50.934;6.934;2023-04-15T11:28:38;8.20;;;6.33;;
5175;SDS011;2607;50.934;6.934;2023-04-15T11:31:06;3.77;;;3.57;;
5175;SDS011;2607;50.934;6.934;2023-04-15T11:33:34;5.03;;;4.73;;
5175;SDS011;2607;50.934;6.934;2023-04-15T11:36:00;4.00;;;3.80;;
5175;SDS011;2607;50.934;6.934;2023-04-15T11:38:26;2.97;;;2.63;;
5175;SDS011;2607;50.934;6.934;2023-04-15T11:40:51;3.27;;;3.13;;
5175;SDS011;2607;50.934;6.934;2023-04-15T11:43:19;3.20;;;3.10;;
5175;SDS011;2607;50.934;6.934;2023-04-15T11:45:53;4.97;;;4.57;;
5175;SDS011;2607;50.934;6.934;2023-04-15T11:48:24;4.40;;;4.10;;
5175;SDS011;2607;50.934;6.934;2023-04-15T11:50:54;2.90;;;2.80;;
5175;SDS011;2607;50.934;6.934;2023-04-15T11:53:20;3.23;;;3.13;;
5175;SDS011;2607;50.934;6.934;2023-04-15T11:55:48;3.73;;;3.50;;
5175;SDS011;2607;50.934;6.934;2023-04-15T12:00:46;4.30;;;4.00;;
5175;SDS011;2607;50.934;6.934;2023-04-15T12:06:01;3.73;;;3.63;;
5175;SDS011;2607;50.934;6.934;2023-04-15T12:09:10;4.00;;;3.80;;
5175;SDS011;2607;50.934;6.934;2023-04-15T12:14:07;4.20;;;4.10;;
5175;SDS011;2607;50.934;6.934;2023-04-15T12:16:38;10.60;;;5.40;;
5175;SDS011;2607;50.934;6.934;2023-04-15T12:19:09;6.10;;;5.60;;
5175;SDS011;2607;50.934;6.934;2023-04-15T12:21:38;7.30;;;5.30;;
5175;SDS011;2607;50.934;6.934;2023-04-15T12:24:06;6.03;;;5.53;;
5175;SDS011;2607;50.934;6.934;2023-04-15T12:26:37;7.10;;;6.60;;
5175;SDS011;2607;50.934;6.934;2023-04-15T12:29:11;7.17;;;6.67;;
5175;SDS011;2607;50.934;6.934;2023-04-15T12:31:47;5.80;;;5.40;;
5175;SDS011;2607;50.934;6.934;2023-04-15T12:36:56;5.20;;;4.73;;
5175;SDS011;2607;50.934;6.934;2023-04-15T12:39:23;4.70;;;4.50;;
5175;SDS011;2607;50.934;6.934;2023-04-15T12:41:50;4.90;;;4.50;;
5175;SDS011;2607;50.934;6.934;2023-04-15T12:44:16;4.70;;;4.50;;
5175;SDS011;2607;50.934;6.934;2023-04-15T12:46:42;4.73;;;4.50;;
5175;SDS011;2607;50.934;6.934;2023-04-15T12:49:08;5.50;;;5.20;;
5175;SDS011;2607;50.934;6.934;2023-04-15T12:51:33;4.90;;;4.70;;
5175;SDS011;2607;50.934;6.934;2023-04-15T12:53:59;5.30;;;5.00;;
5175;SDS011;2607;50.934;6.934;2023-04-15T12:56:25;6.03;;;5.47;;
5175;SDS011;2607;50.934;6.934;2023-04-15T12:58:50;4.93;;;4.63;;
5175;SDS011;2607;50.934;6.934;2023-04-15T13:01:16;5.53;;;5.03;;
5175;SDS011;2607;50.934;6.934;2023-04-15T13:03:42;5.27;;;4.90;;
5175;SDS011;2607;50.934;6.934;2023-04-15T13:06:08;5.00;;;4.40;;
5175;SDS011;2607;50.934;6.934;2023-04-15T13:08:34;5.97;;;4.67;;
5175;SDS011;2607;50.934;6.934;2023-04-15T13:11:00;5.83;;;4.80;;
5175;SDS011;2607;50.934;6.934;2023-04-15T13:13:25;5.17;;;4.77;;
5175;SDS011;2607;50.934;6.934;2023-04-15T13:15:51;4.20;;;4.00;;
5175;SDS011;2607;50.934;6.934;2023-04-15T13:18:17;5.10;;;4.80;;
5175;SDS011;2607;50.934;6.934;2023-04-15T13:20:42;8.80;;;5.00;;
5175;SDS011;2607;50.934;6.934;2023-04-15T13:23:08;8.67;;;6.67;;
5175;SDS011;2607;50.934;6.934;2023-04-15T13:25:34;4.40;;;4.20;;
5175;SDS011;2607;50.934;6.934;2023-04-15T13:28:00;5.37;;;5.00;;
5175;SDS011;2607;50.934;6.934;2023-04-15T13:30:26;4.23;;;3.90;;
5175;SDS011;2607;50.934;6.934;2023-04-15T13:32:52;3.77;;;3.57;;
5175;SDS011;2607;50.934;6.934;2023-04-15T13:35:18;3.90;;;3.70;;
5175;SDS011;2607;50.934;6.934;2023-04-15T13:37:44;3.90;;;3.70;;
5175;SDS011;2607;50.934;6.934;2023-04-15T13:40:10;3.70;;;3.50;;
5175;SDS011;2607;50.934;6.934;2023-04-15T13:42:36;4.57;;;4.27;;
5175;SDS011;2607;50.934;6.934;2023-04-15T13:45:02;4.07;;;3.87;;
5175;SDS011;2607;50.934;6.934;2023-04-15T13:47:28;5.87;;;5.37;;
5175;SDS011;2607;50.934;6.934;2023-04-15T13:49:53;4.73;;;4.43;;
5175;SDS011;2607;50.934;6.934;2023-04-15T13:52:20;5.00;;;4.60;;
5175;SDS011;2607;50.934;6.934;2023-04-15T13:54:47;5.03;;;4.67;;
5175;SDS011;2607;50.934;6.934;2023-04-15T13:57:12;5.13;;;4.73;;
5175;SDS011;2607;50.934;6.934;2023-04-15T13:59:38;5.23;;;4.90;;
5175;SDS011;2607;50.934;6.934;2023-04-15T14:02:04;5.33;;;4.90;;
5175;SDS011;2607;50.934;6.934;2023-04-15T14:04:30;7.20;;;6.50;;
5175;SDS011;2607;50.934;6.934;2023-04-15T14:06:56;5.50;;;4.83;;
5175;SDS011;2607;50.934;6.934;2023-04-15T14:09:22;6.10;;;5.50;;
5175;SDS011;2607;50.934;6.934;2023-04-15T14:11:51;4.30;;;4.00;;
5175;SDS011;2607;50.934;6.934;2023-04-15T14:14:16;6.17;;;5.67;;
5175;SDS011;2607;50.934;6.934;2023-04-15T14:16:42;4.63;;;4.20;;
5175;SDS011;2607;50.934;6.934;2023-04-15T14:19:07;3.87;;;3.67;;
5175;SDS011;2607;50.934;6.934;2023-04-15T14:21:33;4.87;;;4.40;;
5175;SDS011;2607;50.934;6.934;2023-04-15T14:23:59;7.63;;;6.80;;
5175;SDS011;2607;50.934;6.934;2023-04-15T14:26:24;4.70;;;4.30;;
5175;SDS011;2607;50.934;6.934;2023-04-15T14:28:50;4.57;;;4.27;;
5175;SDS011;2607;50.934;6.934;2023-04-15T14:31:15;3.60;;;3.40;;
5175;SDS011;2607;50.934;6.934;2023-04-15T14:33:41;4.50;;;3.63;;
5175;SDS011;2607;50.934;6.934;2023-04-15T14:36:07;3.27;;;3.17;;
5175;SDS011;2607;50.934;6.934;2023-04-15T14:38:34;3.67;;;3.47;;
5175;SDS011;2607;50.934;6.934;2023-04-15T14:41:04;4.70;;;4.40;;
5175;SDS011;2607;50.934;6.934;2023-04-15T14:43:30;5.93;;;4.43;;
5175;SDS011;2607;50.934;6.934;2023-04-15T14:45:55;6.40;;;5.80;;
5175;SDS011;2607;50.934;6.934;2023-04-15T14:48:21;7.00;;;6.50;;
5175;SDS011;2607;50.934;6.934;2023-04-15T14:50:47;8.07;;;7.37;;
5175;SDS011;2607;50.934;6.934;2023-04-15T14:53:12;7.43;;;6.83;;
5175;SDS011;2607;50.934;6.934;2023-04-15T14:55:38;8.03;;;7.33;;
5175;SDS011;2607;50.934;6.934;2023-04-15T14:58:04;5.90;;;5.50;;
5175;SDS011;2607;50.934;6.934;2023-04-15T15:00:30;5.93;;;5.43;;
5175;SDS011;2607;50.934;6.934;2023-04-15T15:02:56;9.27;;;7.80;;
5175;SDS011;2607;50.934;6.934;2023-04-15T15:05:22;5.20;;;4.80;;
5175;SDS011;2607;50.934;6.934;2023-04-15T15:07:47;6.60;;;6.03;;
5175;SDS011;2607;50.934;6.934;2023-04-15T15:10:13;5.90;;;5.43;;
5175;SDS011;2607;50.934;6.934;2023-04-15T15:12:39;6.80;;;6.20;;
5175;SDS011;2607;50.934;6.934;2023-04-15T15:15:04;9.80;;;8.80;;
5175;SDS011;2607;50.934;6.934;2023-04-15T15:17:30;9.17;;;7.60;;
5175;SDS011;2607;50.934;6.934;2023-04-15T15:19:56;9.50;;;8.30;;
5175;SDS011;2607;50.934;6.934;2023-04-15T15:22:21;10.80;;;9.70;;
5175;SDS011;2607;50.934;6.934;2023-04-15T15:24:47;10.73;;;9.63;;
5175;SDS011;2607;50.934;6.934;2023-04-15T15:27:13;10.90;;;9.87;;
5175;SDS011;2607;50.934;6.934;2023-04-15T15:29:38;10.37;;;9.47;;
5175;SDS011;2607;50.934;6.934;2023-04-15T15:32:04;9.97;;;8.93;;
5175;SDS011;2607;50.934;6.934;2023-04-15T15:34:30;11.00;;;9.77;;
5175;SDS011;2607;50.934;6.934;2023-04-15T15:36:55;11.43;;;9.43;;
5175;SDS011;2607;50.934;6.934;2023-04-15T15:39:21;16.70;;;11.20;;
5175;SDS011;2607;50.934;6.934;2023-04-15T15:41:48;7.67;;;6.97;;
5175;SDS011;2607;50.934;6.934;2023-04-15T15:44:14;9.60;;;8.60;;
5175;SDS011;2607;50.934;6.934;2023-04-15T15:46:39;15.57;;;12.13;;
5175;SDS011;2607;50.934;6.934;2023-04-15T15:49:05;7.70;;;6.73;;
5175;SDS011;2607;50.934;6.934;2023-04-15T15:51:31;9.63;;;7.10;;
5175;SDS011;2607;50.934;6.934;2023-04-15T15:53:56;9.40;;;8.50;;